Time;durP1;ratioP1;P1;durP2;ratioP2;P2;SDS_P1;SDS_P2;PMS_P1;PMS_P2;Temp;Humidity;BMP_temperature;BMP_pressure;BME280_temperature;BME280_humidity;BME280_pressure;Samples;Min_cycle;Max_cycle;Signal;HPM_P1;HPM_P2
2021/10/05 00:00:13;;;;;;;10.43;9.43;;;;;;;10.56;79.98;101306.22;5088824;28;20476;-77
2021/10/05 00:02:41;;;;;;;;;;;;;;;10.48;79.82;101322.78;5090104;28;20610;-77
2021/10/05 00:05:09;;;;;;;;;;;;;;;10.41;79.80;101320.53;5088070;28;19980;-77
2021/10/05 00:07:37;;;;;;;;;;;;;;;10.35;80.15;101323.56;5090088;28;19979;-77
2021/10/05 00:10:06;;;;;;;;;;;;;;;10.28;79.78;101320.38;5088220;28;19972;-77
2021/10/05 00:12:34;;;;;;;;;;;;;;;10.19;79.70;101308.31;5089214;28;19972;-77
2021/10/05 00:15:03;;;;;;;;;;;;;;;10.15;79.59;101314.81;5089569;28;20067;-77
2021/10/05 00:17:32;;;;;;;;;;;;;;;10.11;80.18;101313.25;5089514;28;19976;-71
2021/10/05 00:20:00;;;;;;;;;;;;;;;10.08;79.97;101324.13;5089732;28;19988;-71
2021/10/05 00:22:27;;;;;;;;;;;;;;;10.04;80.05;101317.22;5088913;28;19972;-70
2021/10/05 00:24:55;;;;;;;;;;;;;;;10.02;80.18;101327.16;5089579;28;19995;-71
2021/10/05 00:27:23;;;;;;;;;;;;;;;10.04;80.12;101313.66;5089669;28;19972;-70
2021/10/05 00:29:51;;;;;;;;;;;;;;;10.04;80.45;101333.31;5088999;28;19946;-70
2021/10/05 00:32:19;;;;;;;;;;;;;;;10.06;80.73;101333.22;5089819;28;20067;-70
2021/10/05 00:34:49;;;;;;;;;;;;;;;10.06;80.58;101334.09;5089152;28;20042;-71
2021/10/05 00:37:17;;;;;;;;;;;;;;;10.03;80.69;101334.25;5088561;28;20350;-70
2021/10/05 00:39:45;;;;;;;;;;;;;;;9.93;79.85;101325.00;5089226;28;20394;-70
2021/10/05 00:42:12;;;;;;;;;;;;;;;9.84;79.92;101325.53;5071359;28;20018;-70
2021/10/05 00:44:41;;;;;;;;;;;;;;;9.79;80.50;101330.25;5089208;28;20029;-70
2021/10/05 00:47:10;;;;;;;;;;;;;;;9.74;80.20;101326.97;5088707;28;20005;-70
2021/10/05 00:49:38;;;;;;;;;;;;;;;9.72;80.28;101327.06;5089308;28;20018;-70
2021/10/05 00:52:07;;;;;;;;;;;;;;;9.70;80.17;101328.09;5088906;28;20037;-71
2021/10/05 00:54:36;;;;;;;;;;;;;;;9.65;80.44;101331.88;5089344;28;20438;-71
2021/10/05 00:57:05;;;;;;;;;;;;;;;9.67;80.91;101330.94;5088606;28;19975;-71
2021/10/05 00:59:33;;;;;;;;;;;;;;;9.63;80.68;101333.78;5089573;28;20002;-70
2021/10/05 01:02:01;;;;;;;;;;;;;;;9.54;80.73;101323.56;5086530;28;19975;-71
2021/10/05 01:04:30;;;;;;;;;;;;;;;9.48;80.46;101325.69;5088613;28;19973;-70
2021/10/05 01:06:58;;;;;;;;;;;;;;;9.47;80.84;101319.47;5086683;28;19983;-70
2021/10/05 01:09:28;;;;;;;;;;;;;;;9.47;80.44;101330.19;5070332;28;19983;-70
2021/10/05 01:11:56;;;;;;;;;;;;;;;9.47;81.33;101334.69;5088493;28;20447;-77
2021/10/05 01:14:24;;;;;;;;;;;;;;;9.45;80.74;101331.22;5073397;28;20333;-77
2021/10/05 01:16:53;;;;;;;;;;;;;;;9.34;80.66;101326.44;5088036;28;19992;-77
2021/10/05 01:19:21;;;;;;;;;;;;;;;9.29;81.32;101339.22;5089217;28;20316;-70
2021/10/05 01:21:50;;;;;;;;;;;;;;;9.25;81.18;101334.97;5088307;28;19984;-70
2021/10/05 01:24:19;;;;;;;;;;;;;;;9.24;81.18;101338.63;5089384;28;20379;-71
2021/10/05 01:26:47;;;;;;;;;;;;;;;9.14;80.36;101340.88;5078764;28;20445;-70
2021/10/05 01:29:16;;;;;;;;;;;;;;;9.15;81.15;101339.94;5074935;28;19976;-71
2021/10/05 01:31:46;;;;;;;;;;;;;;;9.14;80.86;101337.34;5092989;28;20276;-71
2021/10/05 01:34:15;;;;;;;;;;;;;;;9.13;81.23;101346.31;5093049;28;20437;-71
2021/10/05 01:36:42;;;;;;;;;;;;;;;9.13;80.92;101347.19;5091062;28;19976;-71
2021/10/05 01:39:22;;;;;;;;;;;;;;;9.11;80.98;101346.41;5092376;28;19972;-71
2021/10/05 01:41:50;;;;;;;;;;;;;;;8.93;80.83;101353.59;5074162;28;19988;-71
2021/10/05 01:44:18;;;;;;;;;;;;;;;8.88;80.61;101357.47;5092826;28;19974;-71
2021/10/05 01:46:46;;;;;;;;;;;;;;;8.88;81.00;101352.09;5092498;28;20366;-71
2021/10/05 01:49:15;;;;;;;;;;;;;;;8.88;81.24;101347.63;5092713;28;20427;-77
2021/10/05 01:51:43;;;;;;;;;;;;;;;8.91;81.24;101343.91;5092413;28;19972;-70
2021/10/05 01:54:11;;;;;;;;;;;;;;;8.82;81.37;101342.53;5092115;28;19968;-78
2021/10/05 01:56:40;;;;;;;;;;;;;;;8.87;80.96;101345.84;5092595;28;20431;-70
2021/10/05 01:59:08;;;;;;;;;;;;;;;8.86;81.36;101349.47;5078572;28;20113;-78
2021/10/05 02:01:38;;;;;;;;;;;;;;;8.84;80.81;101340.66;5074448;28;19995;-72
2021/10/05 02:04:07;;;;;;;;;;;;;;;8.84;81.45;101343.31;5074007;28;20041;-77
2021/10/05 02:06:36;;;;;;;;;;;;;;;8.84;81.38;101331.75;5091543;28;20018;-77
2021/10/05 02:09:05;;;;;;;;;;;;;;;8.83;81.49;101338.91;5091835;28;19972;-77
2021/10/05 02:11:33;;;;;;;;;;;;;;;8.87;81.24;101345.84;5092424;28;19995;-77
2021/10/05 02:14:03;;;;;;;;;;;;;;;8.91;81.30;101339.41;5091898;28;20423;-78
2021/10/05 02:16:32;;;;;;;;;;;;;;;8.94;81.11;101335.72;5092383;28;20012;-78
2021/10/05 02:19:00;;;;;;;;;;;;;;;8.95;80.96;101343.66;5091966;28;19972;-73
2021/10/05 02:21:28;;;;;;;;;;;;;;;8.96;80.67;101340.03;5086074;28;19995;-77
2021/10/05 02:26:50;;;;;;;;;;;;;;;8.96;80.64;101334.69;5091004;28;20025;-78
2021/10/05 02:29:21;;;;;;;;;;;;;;;8.93;80.51;101328.63;5073674;28;20365;-77
2021/10/05 02:31:49;;;;;;;;;;;;;;;8.87;80.62;101331.59;5091760;28;20327;-71
2021/10/05 02:34:17;;;;;;;;;;;;;;;8.81;80.75;101331.91;5092080;28;20075;-70
2021/10/05 02:36:45;;;;;;;;;;;;;;;8.82;81.05;101333.63;5089964;28;19969;-77
2021/10/05 02:39:13;;;;;;;;;;;;;;;8.85;80.55;101331.66;5091175;28;19980;-70
2021/10/05 02:41:41;;;;;;;;;;;;;;;8.84;80.68;101337.97;5073741;28;20478;-71
2021/10/05 02:44:09;;;;;;;;;;;;;;;8.82;80.25;101323.78;5091617;28;20363;-70
2021/10/05 02:46:39;;;;;;;;;;;;;;;8.79;80.73;101332.00;5091222;28;19992;-70
2021/10/05 02:49:07;;;;;;;;;;;;;;;8.77;80.41;101331.19;5073037;28;20063;-70
2021/10/05 02:51:35;;;;;;;;;;;;;;;8.75;80.75;101325.06;5072963;28;19963;-77
2021/10/05 02:54:03;;;;;;;;;;;;;;;8.69;80.41;101331.59;5073008;28;19968;-77
2021/10/05 02:56:30;;;;;;;;;;;;;;;8.65;80.24;101331.84;5073560;28;19972;-70
2021/10/05 02:58:58;;;;;;;;;;;;;;;8.63;80.83;101326.56;5091025;28;20424;-77
2021/10/05 03:01:26;;;;;;;;;;;;;;;8.60;80.46;101325.84;5091373;28;19992;-76
2021/10/05 03:03:56;;;;;;;;;;;;;;;8.63;80.76;101323.88;5089512;28;20432;-76
2021/10/05 03:06:24;;;;;;;;;;;;;;;8.64;80.50;101327.44;5062611;28;19980;-69
2021/10/05 03:08:54;;;;;;;;;;;;;;;8.65;80.97;101324.66;5088884;28;19969;-69
2021/10/05 03:11:23;;;;;;;;;;;;;;;8.67;80.77;101327.28;5085353;28;19976;-76
2021/10/05 03:13:51;;;;;;;;;;;;;;;8.69;80.76;101325.38;5091018;28;19980;-69
2021/10/05 03:16:18;;;;;;;;;;;;;;;8.67;80.63;101324.59;5091035;28;20470;-69
2021/10/05 03:18:47;;;;;;;;;;;;;;;8.59;81.09;101330.34;5090830;28;20034;-69
2021/10/05 03:21:16;;;;;;;;;;;;;;;8.59;80.92;101324.13;5090651;28;19988;-70
2021/10/05 03:23:44;;;;;;;;;;;;;;;8.57;81.02;101325.97;5091106;28;19972;-69
2021/10/05 03:26:12;;;;;;;;;;;;;;;8.53;81.11;101327.06;5090132;28;19972;-69
2021/10/05 03:28:39;;;;;;;;;;;;;;;8.53;80.81;101338.66;5090613;28;20296;-69
2021/10/05 03:31:08;;;;;;;;;;;;;;;8.52;80.72;101328.03;5089512;28;20004;-69
2021/10/05 03:33:35;;;;;;;;;;;;;;;8.49;81.17;101322.81;5081810;28;19979;-69
2021/10/05 03:36:04;;;;;;;;;;;;;;;8.48;80.92;101326.44;5089257;28;20347;-68
2021/10/05 03:38:34;;;;;;;;;;;;;;;8.49;81.08;101318.34;5071444;28;20378;-69
2021/10/05 03:41:02;;;;;;;;;;;;;;;8.50;81.30;101320.06;5090499;28;19973;-69
2021/10/05 03:43:29;;;;;;;;;;;;;;;8.50;80.98;101322.75;5068619;28;19968;-69
2021/10/05 03:45:58;;;;;;;;;;;;;;;8.50;80.78;101322.75;5082361;28;20042;-69
2021/10/05 03:48:25;;;;;;;;;;;;;;;8.50;81.00;101320.06;5089560;28;20330;-69
2021/10/05 03:50:53;;;;;;;;;;;;;;;8.40;80.80;101321.47;5089328;28;20184;-69
2021/10/05 03:53:21;;;;;;;;;;;;;;;8.42;81.02;101322.28;5071664;28;19972;-69
2021/10/05 03:55:52;;;;;;;;;;;;;;;8.42;81.19;101319.59;5090064;28;19973;-68
2021/10/05 03:58:20;;;;;;;;;;;;;;;8.42;80.93;101324.06;5089954;28;19972;-68
2021/10/05 04:00:49;;;;;;;;;;;;;;;8.43;80.55;101321.31;5089927;28;19976;-68
2021/10/05 04:03:17;;;;;;;;;;;;;;;8.43;80.88;101324.00;5090031;28;19988;-69
2021/10/05 04:05:45;;;;;;;;;;;;;;;8.44;80.97;101322.19;5089733;28;20009;-68
2021/10/05 04:08:13;;;;;;;;;;;;;;;8.44;80.63;101320.38;5088514;28;19972;-68
2021/10/05 04:10:41;;;;;;;;;;;;;;;8.46;80.82;101312.28;5087509;28;19969;-69
2021/10/05 04:13:10;;;;;;;;;;;;;;;8.50;81.16;101305.81;5067234;28;19976;-70
2021/10/05 04:15:38;;;;;;;;;;;;;;;8.53;80.91;101306.53;5087760;28;19976;-69
2021/10/05 04:18:06;;;;;;;;;;;;;;;8.56;81.08;101300.16;5088917;28;20056;-69
2021/10/05 04:20:33;;;;;;;;;;;;;;;8.57;81.65;101299.22;5089525;28;19969;-70
2021/10/05 04:23:01;;;;;;;;;;;;;;;8.58;82.22;101311.69;5088961;28;20451;-69
2021/10/05 04:25:29;;;;;;;;;;;;;;;8.63;81.76;101305.16;5088548;28;19979;-69
2021/10/05 04:27:57;;;;;;;;;;;;;;;8.66;80.98;101299.63;5089158;28;20399;-69
2021/10/05 04:30:26;;;;;;;;;;;;;;;8.70;81.21;101300.34;5087890;28;20458;-70
2021/10/05 04:32:54;;;;;;;;;;;;;;;8.73;81.06;101308.22;5070899;28;19973;-70
2021/10/05 04:35:23;;;;;;;;;;;;;;;8.74;80.31;101312.63;5088806;28;19978;-70
2021/10/05 04:37:50;;;;;;;;;;;;;;;8.73;80.60;101310.88;5086766;28;19991;-70
2021/10/05 04:40:18;;;;;;;;;;;;;;;8.74;80.49;101326.00;5088066;28;19980;-70
2021/10/05 04:42:46;;;;;;;;;;;;;;;8.77;80.80;101333.00;5082650;28;20431;-71
2021/10/05 04:45:14;;;;;;;;;;;;;;;8.77;80.76;101328.53;5085906;28;20018;-71
2021/10/05 04:47:43;;;;;;;;;;;;;;;8.69;80.53;101328.91;5088443;28;20382;-71
2021/10/05 04:50:14;;;;;;;;;;;;;;;8.70;80.61;101333.34;5088691;28;20435;-71
2021/10/05 04:52:43;;;;;;;;;;;;;;;8.66;80.49;101341.59;5089318;28;20280;-72
2021/10/05 04:55:12;;;;;;;;;;;;;;;8.63;80.37;101344.44;5070875;28;20328;-71
2021/10/05 04:57:40;;;;;;;;;;;;;;;8.57;80.43;101350.06;5089241;28;19979;-72
2021/10/05 05:00:09;;;;;;;;;;;;;;;8.55;80.61;101349.28;5087786;28;20455;-72
2021/10/05 05:02:37;;;;;;;;;;;;;;;8.50;80.23;101357.53;5071157;28;19996;-72
2021/10/05 05:05:07;;;;;;;;;;;;;;;8.49;80.69;101362.97;5087270;28;20339;-72
2021/10/05 05:07:35;;;;;;;;;;;;;;;8.48;80.71;101369.28;5067571;28;20418;-77
2021/10/05 05:10:04;;;;;;;;;;;;;;;8.47;80.84;101373.75;5065597;28;19976;-77
2021/10/05 05:12:32;;;;;;;;;;;;;;;8.48;80.67;101377.31;5070014;28;20362;-77
2021/10/05 05:15:00;;;;;;;;;;;;;;;8.46;80.83;101381.88;5088369;28;19973;-77
2021/10/05 05:17:28;;;;;;;;;;;;;;;8.46;80.47;101373.84;5087817;28;20069;-77
2021/10/05 05:19:56;;;;;;;;;;;;;;;8.47;80.60;101383.59;5087924;28;19972;-74
2021/10/05 05:22:25;;;;;;;;;;;;;;;8.48;80.60;101390.69;5088473;28;19989;-76
2021/10/05 05:24:53;;;;;;;;;;;;;;;8.50;80.75;101378.09;5088571;28;20358;-78
2021/10/05 05:27:22;;;;;;;;;;;;;;;8.50;80.79;101365.56;5082520;28;19972;-77
2021/10/05 05:29:50;;;;;;;;;;;;;;;8.50;80.55;101362.03;5087359;28;20249;-77
2021/10/05 05:32:19;;;;;;;;;;;;;;;8.12;80.40;101305.00;5081851;28;20350;-77
2021/10/05 05:34:47;;;;;;;;;;;;;;;8.05;80.24;101302.63;5087849;28;20318;-77
2021/10/05 05:37:14;;;;;;;;;;;;;;;8.50;80.46;101375.41;5087556;28;19969;-77
2021/10/05 05:39:44;;;;;;;;;;;;;;;8.53;80.47;101376.13;5084576;28;19972;-77
2021/10/05 05:42:12;;;;;;;;;;;;;;;8.59;80.83;101374.97;5087236;28;20439;-77
2021/10/05 05:44:40;;;;;;;;;;;;;;;8.58;81.04;101379.47;5084713;28;19969;-77
2021/10/05 05:47:09;;;;;;;;;;;;;;;8.66;80.73;101384.44;5057651;28;20436;-77
2021/10/05 05:49:36;;;;;;;;;;;;;;;8.75;80.45;101383.97;5085822;28;20088;-77
2021/10/05 05:52:05;;;;;;;;;;;;;;;8.82;80.39;101396.09;5084659;28;20036;-77
2021/10/05 05:54:33;;;;;;;;;;;;;;;8.88;80.36;101390.47;5085072;28;19968;-77
2021/10/05 05:57:02;;;;;;;;;;;;;;;8.92;80.52;101386.69;5084257;28;20416;-77
2021/10/05 05:59:30;;;;;;;;;;;;;;;8.90;80.03;101399.28;5081878;28;20430;-77
2021/10/05 06:01:58;;;;;;;;;;;;;;;8.88;80.67;101393.16;5084569;28;20478;-77
2021/10/05 06:04:26;;;;;;;;;;;;;;;8.81;80.29;101396.19;5064064;28;20009;-77
2021/10/05 06:06:54;;;;;;;;;;;;;;;8.74;81.19;101403.66;5066078;28;19976;-77
2021/10/05 06:09:22;;;;;;;;;;;;;;;8.76;81.19;101400.91;5077967;28;20004;-77
2021/10/05 06:11:52;;;;;;;;;;;;;;;8.80;80.68;101398.00;5088428;28;19968;-77
2021/10/05 06:14:27;;;;;;;;;;;;;;;8.88;80.90;101394.97;5088138;28;19976;-77
2021/10/05 06:16:56;;;;;;;;;;;;;;;8.91;80.30;101395.66;5085018;28;19976;-77
2021/10/05 06:19:24;;;;;;;;;;;;;;;8.93;80.82;101387.56;5067646;28;19979;-77
2021/10/05 06:21:51;;;;;;;;;;;;;;;8.91;81.21;101395.66;5088899;28;19969;-77
2021/10/05 06:24:19;;;;;;;;;;;;;;;8.97;81.04;101400.72;5090386;28;20319;-77
2021/10/05 06:26:47;;;;;;;;;;;;;;;9.01;80.92;101409.44;5088572;28;19968;-77
2021/10/05 06:29:15;;;;;;;;;;;;;;;9.00;80.83;101405.91;5073925;28;20076;-77
2021/10/05 06:31:44;;;;;;;;;;;;;;;9.07;80.93;101402.91;5069855;28;20389;-77
2021/10/05 06:34:12;;;;;;;;;;;;;;;9.10;80.79;101405.44;5089438;28;19968;-77
2021/10/05 06:36:40;;;;;;;;;;;;;;;9.13;81.39;101422.22;5090153;28;19968;-77
2021/10/05 06:39:08;;;;;;;;;;;;;;;9.22;80.86;101411.06;5087067;28;20948;-76
2021/10/05 06:41:36;;;;;;;;;;;;;;;9.25;80.75;101407.34;5090372;28;19999;-77
2021/10/05 06:44:04;;;;;;;;;;;;;;;9.32;82.25;101406.06;5088976;28;19996;-77
2021/10/05 06:46:32;;;;;;;;;;;;;;;9.43;81.93;101409.03;5071088;28;19989;-77
2021/10/05 06:49:01;;;;;;;;;;;;;;;9.53;84.35;101398.72;5089038;28;20443;-77
2021/10/05 06:51:29;;;;;;;;;;;;;;;9.63;83.90;101400.84;5089111;28;20423;-77
2021/10/05 06:53:57;;;;;;;;;;;;;;;9.79;81.79;101394.63;5088857;28;19972;-71
2021/10/05 06:56:25;;;;;;;;;;;;;;;9.91;81.36;101399.34;5088740;28;19969;-77
2021/10/05 06:58:54;;;;;;;;;;;;;;;9.98;80.75;101397.19;5088806;28;19992;-77
2021/10/05 07:01:21;;;;;;;;;;;;;;;10.03;80.95;101404.03;5089332;28;20480;-77
2021/10/05 07:03:50;;;;;;;;;;;;;;;10.06;80.90;101395.81;5089069;28;19996;-77
2021/10/05 07:06:19;;;;;;;;;;;;;;;10.13;81.13;101394.53;5088956;28;19971;-77
2021/10/05 07:08:47;;;;;;;;;;;;;;;10.18;81.79;101387.09;5089008;28;20000;-77
2021/10/05 07:11:15;;;;;;;;;;;;;;;10.32;80.87;101388.16;5088388;28;19972;-77
2021/10/05 07:13:43;;;;;;;;;;;;;;;10.43;80.20;101392.00;5089027;28;19969;-77
2021/10/05 07:16:11;;;;;;;;;;;;;;;10.56;80.77;101389.47;5088371;28;19975;-77
2021/10/05 07:18:39;;;;;;;;;;;;;;;10.67;80.57;101389.69;5087131;28;20475;-77
2021/10/05 07:21:07;;;;;;;;;;;;;;;10.81;79.88;101395.16;5088399;28;19983;-77
2021/10/05 07:23:36;;;;;;;;;;;;;;;10.93;79.67;101396.25;5068000;28;19996;-77
2021/10/05 07:26:15;;;;;;;;;;;;;;;11.06;79.98;101396.41;5068022;28;20349;-77
2021/10/05 07:28:43;;;;;;;;;;;;;;;11.14;81.11;101402.19;5088441;28;20003;-77
2021/10/05 07:31:11;;;;;;;;;;;;;;;11.19;81.60;101392.88;5088455;28;20045;-77
2021/10/05 07:33:43;;;;;;;;;;;;;;;11.26;82.01;101390.69;5087636;28;20706;-78
2021/10/05 07:36:11;;;;;;;;;;;;;;;11.30;81.98;101388.66;5087974;28;19968;-77
2021/10/05 07:38:40;;;;;;;;;;;;;;;11.33;83.01;101389.38;5088427;28;19980;-78
2021/10/05 07:41:08;;;;;;;;;;;;;;;11.39;81.97;101378.25;5088130;28;19981;-77
2021/10/05 07:43:36;;;;;;;;;;;;;;;11.42;82.80;101383.44;5088404;28;19999;-77
2021/10/05 07:46:05;;;;;;;;;;;;;;;11.40;83.27;101393.41;5087627;28;19995;-77
2021/10/05 07:48:32;;;;;;;;;;;;;;;11.49;82.74;101398.22;5066942;28;20439;-78
2021/10/05 07:51:00;;;;;;;;;;;;;;;11.56;82.97;101401.41;5084559;28;19972;-78
2021/10/05 07:53:28;;;;;;;;;;;;;;;11.63;82.39;101391.13;5086563;28;20018;-77
2021/10/05 07:55:58;;;;;;;;;;;;;;;11.69;82.39;101401.53;5087591;28;19973;-77
2021/10/05 07:58:25;;;;;;;;;;;;;;;11.75;81.91;101406.53;5089864;28;19979;-76
2021/10/05 08:00:53;;;;;;;;;;;;;;;11.82;81.71;101407.91;5087820;28;21388;-75
2021/10/05 08:03:21;;;;;;;;;;;;;;;11.89;81.94;101398.47;5079844;28;19972;-75
2021/10/05 08:05:49;;;;;;;;;;;;;;;11.96;81.38;101402.53;5080794;28;19969;-75
2021/10/05 08:08:17;;;;;;;;;;;;;;;12.04;81.45;101404.75;5083757;28;20427;-75
2021/10/05 08:10:45;;;;;;;;;;;;;;;12.12;81.07;101407.81;5089438;28;19976;-75
2021/10/05 08:13:14;;;;;;;;;;;;;;;12.18;80.81;101404.72;5083671;28;20533;-75
2021/10/05 08:15:42;;;;;;;;;;;;;;;12.26;80.93;101412.31;5086409;28;19992;-75
2021/10/05 08:18:10;;;;;;;;;;;;;;;12.34;80.62;101420.78;5067750;28;19975;-75
2021/10/05 08:20:39;;;;;;;;;;;;;;;12.37;80.72;101417.88;5070030;28;19969;-75
2021/10/05 08:23:07;;;;;;;;;;;;;;;12.40;81.85;101404.22;5088263;28;19980;-75
2021/10/05 08:25:34;;;;;;;;;;;;;;;12.40;81.88;101402.38;5068410;28;19988;-75
2021/10/05 08:28:02;;;;;;;;;;;;;;;12.42;82.79;101408.53;5083596;28;20015;-75
2021/10/05 08:30:32;;;;;;;;;;;;;;;12.41;83.13;101416.72;5087063;28;20388;-75
2021/10/05 08:33:00;;;;;;;;;;;;;;;12.37;83.12;101420.56;5087229;28;20316;-76
2021/10/05 08:35:28;;;;;;;;;;;;;;;12.37;82.65;101418.75;5089240;28;19976;-76
2021/10/05 08:37:57;;;;;;;;;;;;;;;12.34;82.61;101418.06;5089452;28;20342;-76
2021/10/05 08:40:26;;;;;;;;;;;;;;;12.33;82.76;101422.59;5075593;28;20350;-77
2021/10/05 08:42:53;;;;;;;;;;;;;;;12.44;82.21;101417.38;5088537;28;20038;-77
2021/10/05 08:45:23;;;;;;;;;;;;;;;12.62;82.14;101420.72;5089083;28;19995;-76
2021/10/05 08:47:52;;;;;;;;;;;;;;;12.54;82.33;101420.31;5088217;28;20423;-76
2021/10/05 08:50:21;;;;;;;;;;;;;;;12.52;82.88;101419.56;5089036;28;20339;-76
2021/10/05 08:52:49;;;;;;;;;;;;;;;12.58;82.31;101408.41;5089430;28;19972;-76
2021/10/05 08:55:17;;;;;;;;;;;;;;;12.61;82.42;101404.66;5084696;28;20449;-76
2021/10/05 08:57:45;;;;;;;;;;;;;;;12.83;82.31;101414.84;5085490;28;19977;-77
2021/10/05 09:00:13;;;;;;;;;;;;;;;12.95;83.01;101411.34;5088260;28;20184;-77
2021/10/05 09:02:42;;;;;;;;;;;;;;;13.01;82.52;101410.94;5088998;28;20059;-77
2021/10/05 09:05:13;;;;;;;;;;;;;;;13.09;82.15;101407.72;5066961;28;20660;-76
2021/10/05 09:07:46;;;;;;;;;;;;;;;13.04;83.01;101418.81;5089091;28;20250;-77
2021/10/05 09:10:15;;;;;;;;;;;;;;;13.06;82.94;101420.44;5088411;28;20253;-77
2021/10/05 09:12:43;;;;;;;;;;;;;;;13.12;82.83;101419.16;5089282;28;20408;-76
2021/10/05 09:15:11;;;;;;;;;;;;;;;13.13;81.86;101418.19;5088347;28;19976;-77
2021/10/05 09:17:40;;;;;;;;;;;;;;;13.13;82.78;101414.63;5061175;28;19973;-77
2021/10/05 09:20:23;;;;;;;;;;;;;;;13.19;82.55;101404.34;5084100;28;19975;-76
2021/10/05 09:23:02;;;;;;;;;;;;;;;13.32;81.98;101405.22;5088850;28;19968;-77
2021/10/05 09:25:31;;;;;;;;;;;;;;;13.38;82.08;101403.94;5084446;28;20473;-77
2021/10/05 09:28:01;;;;;;;;;;;;;;;13.39;81.65;101399.41;5082746;28;19975;-77
2021/10/05 09:30:29;;;;;;;;;;;;;;;13.46;81.64;101398.00;5084590;28;19984;-77
2021/10/05 09:33:01;;;;;;;;;;;;;;;13.53;81.60;101399.31;5087329;28;20582;-77
2021/10/05 09:35:41;;;;;;;;;;;;;;;13.47;81.13;101397.94;5084198;28;19983;-77
2021/10/05 09:38:16;;;;;;;;;;;;;;;13.45;81.05;101388.19;5087020;28;19972;-77
2021/10/05 09:40:45;;;;;;;;;;;;;;;13.56;80.01;101383.78;5067065;28;20394;-77
2021/10/05 09:43:20;;;;;;;;;;;;;;;13.62;80.44;101386.03;5086673;28;19968;-77
2021/10/05 09:45:49;;;;;;;;;;;;;;;13.62;80.12;101379.78;5087144;28;19988;-77
2021/10/05 09:48:17;;;;;;;;;;;;;;;13.63;80.33;101381.50;5091031;28;19975;-77
2021/10/05 09:50:46;;;;;;;;;;;;;;;13.64;80.16;101385.94;5091174;28;20335;-77
2021/10/05 09:53:16;;;;;;;;;;;;;;;13.63;79.84;101374.28;5090393;28;19969;-77
2021/10/05 09:55:46;;;;;;;;;;;;;;;13.54;79.27;101365.97;5073092;28;20051;-77
2021/10/05 09:58:15;;;;;;;;;;;;;;;13.56;79.52;101377.53;5089847;28;19981;-77
2021/10/05 10:00:44;;;;;;;;;;;;;;;13.76;79.04;101368.00;5090970;28;19974;-77
2021/10/05 10:03:12;;;;;;;;;;;;;;;13.92;79.53;101374.91;5088244;28;20400;-77
2021/10/05 10:05:40;;;;;;;;;;;;;;;13.82;79.14;101367.59;5089545;28;20355;-77
2021/10/05 10:08:10;;;;;;;;;;;;;;;13.91;77.89;101365.09;5072077;28;20055;-77
2021/10/05 10:10:39;;;;;;;;;;;;;;;14.13;78.30;101385.16;5089710;28;20067;-76
2021/10/05 10:13:08;;;;;;;;;;;;;;;14.36;76.80;101364.53;5089524;28;19968;-76
2021/10/05 10:15:39;;;;;;;;;;;;;;;14.42;77.38;101366.81;5069701;28;19973;-76
2021/10/05 10:18:08;;;;;;;;;;;;;;;14.55;77.40;101365.81;5087165;28;20098;-76
2021/10/05 10:20:36;;;;;;;;;;;;;;;14.43;76.61;101366.72;5090193;28;19969;-76
2021/10/05 10:23:15;;;;;;;;;;;;;;;14.54;76.70;101372.19;5089462;28;20428;-76
2021/10/05 10:25:52;;;;;;;;;;;;;;;14.40;76.91;101372.34;5089511;28;19984;-77
2021/10/05 10:28:24;;;;;;;;;;;;;;;14.43;77.25;101377.53;5088812;28;19983;-77
2021/10/05 10:30:54;;;;;;;;;;;;;;;14.34;77.70;101371.91;5090176;28;19972;-77
2021/10/05 10:33:24;;;;;;;;;;;;;;;14.14;77.95;101367.97;5088775;28;20026;-77
2021/10/05 10:35:55;;;;;;;;;;;;;;;14.13;78.28;101368.94;5088320;28;19968;-77
2021/10/05 10:38:24;;;;;;;;;;;;;;;14.10;77.51;101369.16;5088836;28;19969;-77
2021/10/05 10:40:53;;;;;;;;;;;;;;;14.09;77.72;101368.31;5089824;28;19980;-77
2021/10/05 10:43:23;;;;;;;;;;;;;;;14.27;77.76;101366.94;5068344;28;20279;-77
2021/10/05 10:45:52;;;;;;;;;;;;;;;14.23;77.61;101367.28;5089576;28;19999;-77
2021/10/05 10:48:30;;;;;;;;;;;;;;;14.20;77.77;101365.69;5087804;28;20072;-77
2021/10/05 10:51:00;;;;;;;;;;;;;;;14.30;78.72;101363.16;5088972;28;19991;-75
2021/10/05 10:53:36;;;;;;;;;;;;;;;14.36;77.97;101362.69;5070708;28;19968;-76
2021/10/05 10:56:06;;;;;;;;;;;;;;;14.46;78.04;101361.09;5081573;28;19972;-76
2021/10/05 10:58:36;;;;;;;;;;;;;;;14.51;78.18;101353.50;5081464;28;19972;-76
2021/10/05 11:01:15;;;;;;;;;;;;;;;14.65;78.41;101354.31;5083222;28;20082;-76
2021/10/05 11:03:44;;;;;;;;;;;;;;;14.73;78.35;101346.50;5081723;28;20004;-76
2021/10/05 11:06:23;;;;;;;;;;;;;;;14.95;77.69;101346.56;5088125;28;20034;-76
2021/10/05 11:08:57;;;;;;;;;;;;;;;14.92;76.23;101346.81;5068329;28;19988;-76
2021/10/05 11:11:34;;;;;;;;;;;;;;;14.74;76.03;101345.53;5088933;28;19980;-76
2021/10/05 11:14:03;;;;;;;;;;;;;;;14.92;75.60;101346.81;5084729;28;19973;-76
2021/10/05 11:16:32;;;;;;;;;;;;;;;14.87;75.50;101339.03;5083146;28;19990;-76
2021/10/05 11:19:07;;;;;;;;;;;;;;;14.91;75.29;101345.94;5086588;28;19976;-76
2021/10/05 11:21:36;;;;;;;;;;;;;;;14.79;74.84;101348.72;5083162;28;20346;-76
2021/10/05 11:24:04;;;;;;;;;;;;;;;14.69;75.11;101348.53;5086911;28;20001;-76
2021/10/05 11:26:34;;;;;;;;;;;;;;;14.44;76.23;101349.53;5067665;28;19920;-77
2021/10/05 11:29:03;;;;;;;;;;;;;;;14.49;76.99;101350.06;5084988;28;20398;-77
2021/10/05 11:31:41;;;;;;;;;;;;;;;14.46;76.72;101344.88;5085575;28;20434;-76
2021/10/05 11:34:09;;;;;;;;;;;;;;;14.46;76.82;101342.19;5082497;28;20334;-76
2021/10/05 11:36:37;;;;;;;;;;;;;;;14.45;75.92;101339.59;5079928;28;20024;-76
2021/10/05 11:39:05;;;;;;;;;;;;;;;14.59;75.99;101334.00;5086600;28;20450;-76
2021/10/05 11:41:39;;;;;;;;;;;;;;;14.55;76.07;101327.97;5070091;28;19972;-76
2021/10/05 11:44:15;;;;;;;;;;;;;;;14.51;76.70;101320.22;5087363;28;19968;-77
2021/10/05 11:46:53;;;;;;;;;;;;;;;14.46;76.84;101319.69;5080847;28;19988;-77
2021/10/05 11:49:22;;;;;;;;;;;;;;;14.43;76.01;101322.63;5085953;28;19979;-77
2021/10/05 11:51:52;;;;;;;;;;;;;;;14.55;76.80;101321.69;5086933;28;20329;-77
2021/10/05 11:54:20;;;;;;;;;;;;;;;14.58;75.89;101319.63;5087859;28;20765;-77
2021/10/05 11:56:49;;;;;;;;;;;;;;;14.62;75.73;101322.94;5088403;28;19968;-77
2021/10/05 11:59:26;;;;;;;;;;;;;;;14.64;76.08;101320.13;5087803;28;20446;-77
2021/10/05 12:01:58;;;;;;;;;;;;;;;14.66;75.55;101323.56;5082736;28;19968;-76
2021/10/05 12:04:27;;;;;;;;;;;;;;;14.56;76.54;101328.81;5084311;28;20030;-77
2021/10/05 12:06:56;;;;;;;;;;;;;;;14.53;76.92;101321.81;5062102;28;20383;-77
2021/10/05 12:09:27;;;;;;;;;;;;;;;14.63;76.74;101323.81;5083812;28;19968;-77
2021/10/05 12:11:58;;;;;;;;;;;;;;;14.49;76.04;101312.22;5082070;28;19973;-77
2021/10/05 12:14:31;;;;;;;;;;;;;;;14.49;76.32;101305.94;5080950;28;19972;-78
2021/10/05 12:17:11;;;;;;;;;;;;;;;14.57;76.18;101298.13;5084857;28;20347;-77
2021/10/05 12:19:40;;;;;;;;;;;;;;;14.59;75.82;101302.44;5086082;28;19976;-76
2021/10/05 12:22:08;;;;;;;;;;;;;;;14.65;76.17;101301.09;5083319;28;19984;-77
2021/10/05 12:24:43;;;;;;;;;;;;;;;14.63;76.14;101292.25;5083828;28;20506;-76
2021/10/05 12:27:18;;;;;;;;;;;;;;;14.57;76.12;101290.88;5084654;28;19990;-77
2021/10/05 12:29:48;;;;;;;;;;;;;;;14.82;75.23;101289.00;5085344;28;19968;-76
2021/10/05 12:32:15;;;;;;;;;;;;;;;14.78;75.51;101284.81;5063686;28;20026;-77
2021/10/05 12:34:50;;;;;;;;;;;;;;;14.75;75.16;101279.66;5083122;28;20011;-77
2021/10/05 12:37:19;;;;;;;;;;;;;;;14.57;76.00;101281.91;5081144;28;19972;-77
2021/10/05 12:40:01;;;;;;;;;;;;;;;14.50;76.52;101276.09;5084026;28;20110;-77
2021/10/05 12:42:42;;;;;;;;;;;;;;;14.59;76.67;101269.97;5086490;28;20427;-77
2021/10/05 12:45:11;;;;;;;;;;;;;;;14.48;76.58;101271.78;5086736;28;20460;-76
2021/10/05 12:47:49;;;;;;;;;;;;;;;14.55;76.54;101273.03;5082996;28;19992;-77
2021/10/05 12:50:18;;;;;;;;;;;;;;;14.49;77.25;101268.09;5082953;28;19995;-77
2021/10/05 12:52:50;;;;;;;;;;;;;;;14.44;77.21;101265.75;5085159;28;19975;-77